createdAt,value
2022-11-29T00:01:09.741Z,10.80
2022-11-29T00:03:37.382Z,14.07
2022-11-29T00:06:09.993Z,11.03
2022-11-29T00:08:37.057Z,11.07
2022-11-29T00:11:08.913Z,11.60
2022-11-29T00:13:35.800Z,11.20
2022-11-29T00:16:07.961Z,14.20
2022-11-29T00:18:34.800Z,8.93
2022-11-29T00:21:06.444Z,11.00
2022-11-29T00:23:33.254Z,14.30
2022-11-29T00:26:07.413Z,9.63
2022-11-29T00:28:35.832Z,13.07
2022-11-29T00:31:16.939Z,12.87
2022-11-29T00:33:43.681Z,9.73
2022-11-29T00:36:11.176Z,14.53
2022-11-29T00:38:37.884Z,16.10
2022-11-29T00:41:04.563Z,9.77
2022-11-29T00:43:31.153Z,14.13
2022-11-29T00:45:58.116Z,12.63
2022-11-29T00:48:25.084Z,10.27
2022-11-29T00:50:51.817Z,12.17
2022-11-29T00:53:18.453Z,15.60
2022-11-29T00:55:47.776Z,9.53
2022-11-29T00:58:14.526Z,8.53
2022-11-29T01:00:41.642Z,11.13
2022-11-29T01:03:08.290Z,9.87
2022-11-29T01:05:34.924Z,11.60
2022-11-29T01:08:01.795Z,9.03
2022-11-29T01:10:28.362Z,10.70
2022-11-29T01:12:57.941Z,8.57
2022-11-29T01:15:24.702Z,14.00
2022-11-29T01:17:51.365Z,8.53
2022-11-29T01:20:17.966Z,9.60
2022-11-29T01:22:44.507Z,11.40
2022-11-29T01:25:14.628Z,12.20
2022-11-29T01:27:41.751Z,11.57
2022-11-29T01:30:09.879Z,16.00
2022-11-29T01:32:37.175Z,11.87
2022-11-29T01:35:05.082Z,8.90
2022-11-29T01:37:31.963Z,9.97
2022-11-29T01:39:58.673Z,8.30
2022-11-29T01:42:25.251Z,7.23
2022-11-29T01:45:25.141Z,8.63
2022-11-29T01:47:55.147Z,9.70
2022-11-29T01:50:21.884Z,10.50
2022-11-29T01:52:48.809Z,9.57
2022-11-29T01:55:15.811Z,8.93
2022-11-29T01:57:43.257Z,7.70
2022-11-29T02:00:15.909Z,7.53
2022-11-29T02:02:46.976Z,8.10
2022-11-29T02:05:16.728Z,11.20
2022-11-29T02:07:45.646Z,8.87
2022-11-29T02:10:15.680Z,11.70
2022-11-29T02:13:08.560Z,10.70
2022-11-29T02:15:50.236Z,7.00
2022-11-29T02:18:37.170Z,13.73
2022-11-29T02:21:09.383Z,11.00
2022-11-29T02:23:57.362Z,8.47
2022-11-29T02:26:41.714Z,6.13
2022-11-29T02:29:29.798Z,7.20
2022-11-29T02:32:14.905Z,7.53
2022-11-29T02:34:58.876Z,9.43
2022-11-29T02:37:48.419Z,9.60
2022-11-29T02:40:39.856Z,6.00
2022-11-29T02:44:03.970Z,8.00
2022-11-29T02:46:44.061Z,8.37
2022-11-29T02:49:28.236Z,8.70
2022-11-29T02:52:07.379Z,10.20
2022-11-29T02:54:50.836Z,7.90
2022-11-29T02:57:23.426Z,8.53
2022-11-29T03:00:13.535Z,6.80
2022-11-29T03:02:49.822Z,5.80
2022-11-29T03:05:47.056Z,8.57
2022-11-29T03:08:25.429Z,7.57
2022-11-29T03:11:08.151Z,8.93
2022-11-29T03:13:40.851Z,9.17
2022-11-29T03:16:28.427Z,6.47
2022-11-29T03:19:05.731Z,6.87
2022-11-29T03:21:40.715Z,7.97
2022-11-29T03:24:20.910Z,9.10
2022-11-29T03:27:00.107Z,7.30
2022-11-29T03:29:36.593Z,5.87
2022-11-29T03:32:18.033Z,8.43
2022-11-29T03:35:20.240Z,7.93
2022-11-29T03:37:52.899Z,6.70
2022-11-29T03:40:50.033Z,9.80
2022-11-29T03:43:22.326Z,8.30
2022-11-29T03:45:55.721Z,7.80
2022-11-29T03:48:40.617Z,6.30
2022-11-29T03:51:19.938Z,10.57
2022-11-29T03:53:54.043Z,9.80
2022-11-29T03:56:33.696Z,8.40
2022-11-29T03:59:38.532Z,8.80
2022-11-29T04:02:47.042Z,7.97
2022-11-29T04:05:36.285Z,8.30
2022-11-29T04:08:44.484Z,8.70
2022-11-29T04:11:32.186Z,7.70
2022-11-29T04:14:22.285Z,8.60
2022-11-29T04:17:07.465Z,8.73
2022-11-29T04:20:06.956Z,8.20
2022-11-29T04:22:58.174Z,7.20
2022-11-29T04:25:46.990Z,8.60
2022-11-29T04:28:47.057Z,6.63
2022-11-29T04:31:37.834Z,5.97
2022-11-29T04:34:16.290Z,7.43
2022-11-29T04:36:48.916Z,6.00
2022-11-29T04:39:41.530Z,9.67
2022-11-29T04:42:33.637Z,6.47
2022-11-29T04:45:32.656Z,7.20
2022-11-29T04:48:30.671Z,6.33
2022-11-29T04:51:29.114Z,5.50
2022-11-29T04:54:15.942Z,8.80
2022-11-29T04:57:01.670Z,7.03
2022-11-29T04:59:49.044Z,5.73
2022-11-29T05:02:34.428Z,6.37
2022-11-29T05:05:33.009Z,5.40
2022-11-29T05:08:17.335Z,7.10
2022-11-29T05:11:02.631Z,7.20
2022-11-29T05:13:40.647Z,5.50
2022-11-29T05:16:23.874Z,5.27
2022-11-29T05:19:12.240Z,7.60
2022-11-29T05:22:19.779Z,6.50
2022-11-29T05:25:11.320Z,5.63
2022-11-29T05:27:46.340Z,6.60
2022-11-29T05:30:22.584Z,8.30
2022-11-29T05:33:17.630Z,5.93
2022-11-29T05:35:58.204Z,6.00
2022-11-29T05:38:56.710Z,8.63
2022-11-29T05:41:45.024Z,5.67
2022-11-29T05:44:32.397Z,7.53
2022-11-29T05:47:00.908Z,5.57
2022-11-29T05:49:48.963Z,6.60
2022-11-29T05:52:41.576Z,5.17
2022-11-29T05:55:24.739Z,9.03
2022-11-29T05:58:19.753Z,8.27
2022-11-29T06:01:04.431Z,8.27
2022-11-29T06:03:39.014Z,4.63
2022-11-29T06:06:30.991Z,4.60
2022-11-29T06:09:06.162Z,5.10
2022-11-29T06:11:42.026Z,5.43
2022-11-29T06:14:13.571Z,6.20
2022-11-29T06:17:19.732Z,5.40
2022-11-29T06:19:53.179Z,6.47
2022-11-29T06:22:53.593Z,8.53
2022-11-29T06:25:37.150Z,19.63
2022-11-29T06:28:38.831Z,19.77
2022-11-29T06:31:31.712Z,17.93
2022-11-29T06:34:29.136Z,17.07
2022-11-29T06:37:15.759Z,10.97
2022-11-29T06:39:42.665Z,12.77
2022-11-29T06:42:09.205Z,15.47
2022-11-29T06:44:36.070Z,12.30
2022-11-29T06:47:22.696Z,10.90
2022-11-29T06:50:22.103Z,12.30
2022-11-29T06:53:03.980Z,8.37
2022-11-29T06:55:43.048Z,8.63
2022-11-29T06:58:40.788Z,8.27
2022-11-29T07:01:40.017Z,10.40
2022-11-29T07:04:30.909Z,9.93
2022-11-29T07:06:57.781Z,6.33
2022-11-29T07:09:32.076Z,8.53
2022-11-29T07:11:58.887Z,5.93
2022-11-29T07:14:25.737Z,8.23
2022-11-29T07:17:30.215Z,5.33
2022-11-29T07:20:17.947Z,12.70
2022-11-29T07:23:21.997Z,9.43
2022-11-29T07:26:05.802Z,6.20
2022-11-29T07:28:49.683Z,7.50
2022-11-29T07:31:52.929Z,9.10
2022-11-29T07:34:48.603Z,10.60
2022-11-29T07:37:30.399Z,5.20
2022-11-29T07:40:13.068Z,4.73
2022-11-29T07:43:05.369Z,8.60
2022-11-29T07:45:36.033Z,7.37
2022-11-29T07:48:02.706Z,5.43
2022-11-29T07:50:30.569Z,6.63
2022-11-29T07:52:57.756Z,6.97
2022-11-29T07:55:26.112Z,7.20
2022-11-29T07:57:53.304Z,4.33
2022-11-29T08:00:21.051Z,4.70
2022-11-29T08:02:48.678Z,5.70
2022-11-29T08:05:15.343Z,5.90
2022-11-29T08:07:42.162Z,3.97
2022-11-29T08:10:12.140Z,4.43
2022-11-29T08:12:46.658Z,8.30
2022-11-29T08:15:13.598Z,3.53
2022-11-29T08:17:40.389Z,3.30
2022-11-29T08:20:08.112Z,5.27
2022-11-29T08:22:34.894Z,4.33
2022-11-29T08:25:01.661Z,4.87
2022-11-29T08:27:28.357Z,5.73
2022-11-29T08:29:54.923Z,6.60
2022-11-29T08:32:21.535Z,4.83
2022-11-29T08:34:48.236Z,6.67
2022-11-29T08:37:14.889Z,5.40
2022-11-29T08:39:41.468Z,6.20
2022-11-29T08:42:08.032Z,7.03
2022-11-29T08:44:34.571Z,4.40
2022-11-29T08:47:19.837Z,8.40
2022-11-29T08:50:04.620Z,7.40
2022-11-29T08:52:52.155Z,5.03
2022-11-29T08:55:20.625Z,9.43
2022-11-29T08:57:48.286Z,6.27
2022-11-29T09:00:16.342Z,4.70
2022-11-29T09:02:42.953Z,5.20
2022-11-29T09:05:10.828Z,6.13
2022-11-29T09:07:38.258Z,5.90
2022-11-29T09:10:08.172Z,22.37
2022-11-29T09:12:36.503Z,28.50
2022-11-29T09:15:06.139Z,25.80
2022-11-29T09:17:32.787Z,26.63
2022-11-29T09:19:59.338Z,25.40
2022-11-29T09:22:25.893Z,21.37
2022-11-29T09:24:52.506Z,22.10
2022-11-29T09:27:19.090Z,19.90
2022-11-29T09:29:45.691Z,19.00
2022-11-29T09:32:12.236Z,13.03
2022-11-29T09:34:38.791Z,17.93
2022-11-29T09:37:05.750Z,18.37
2022-11-29T09:39:32.398Z,13.97
2022-11-29T09:42:14.507Z,14.70
2022-11-29T09:45:06.265Z,11.47
2022-11-29T09:48:00.731Z,14.23
2022-11-29T09:50:43.033Z,14.83
2022-11-29T09:53:46.528Z,12.30
2022-11-29T09:56:19.092Z,11.80
2022-11-29T09:58:51.682Z,15.67
2022-11-29T10:01:27.685Z,11.00
2022-11-29T10:04:01.474Z,16.00
2022-11-29T10:06:35.027Z,12.20
2022-11-29T10:09:05.473Z,12.50
2022-11-29T10:11:42.981Z,11.50
2022-11-29T10:14:21.183Z,18.07
2022-11-29T10:16:58.420Z,9.77
2022-11-29T10:19:34.963Z,10.63
2022-11-29T10:22:27.324Z,8.63
2022-11-29T10:24:59.117Z,10.00
2022-11-29T10:27:29.393Z,9.13
2022-11-29T10:29:59.106Z,11.13
2022-11-29T10:32:30.682Z,12.47
2022-11-29T10:34:58.564Z,14.93
2022-11-29T10:37:25.195Z,14.17
2022-11-29T10:40:00.228Z,9.57
2022-11-29T10:42:47.489Z,8.27
2022-11-29T10:45:28.892Z,9.40
2022-11-29T10:48:01.582Z,13.17
2022-11-29T10:50:31.711Z,10.27
2022-11-29T10:53:28.168Z,117.00
2022-11-29T10:56:02.409Z,226.03
2022-11-29T10:58:30.497Z,129.37
2022-11-29T11:01:06.788Z,99.77
2022-11-29T11:03:55.235Z,74.67
2022-11-29T11:06:43.774Z,60.83
2022-11-29T11:09:33.473Z,53.10
2022-11-29T11:12:05.904Z,46.93
2022-11-29T11:14:39.173Z,35.23
2022-11-29T11:17:27.919Z,44.10
2022-11-29T11:20:00.803Z,35.30
2022-11-29T11:22:29.121Z,41.80
2022-11-29T11:24:58.988Z,39.30
2022-11-29T11:27:41.454Z,29.70
2022-11-29T11:30:26.913Z,24.60
2022-11-29T11:33:20.154Z,30.23
2022-11-29T11:36:07.348Z,27.20
2022-11-29T11:38:40.161Z,27.93
2022-11-29T11:41:49.004Z,25.73
2022-11-29T11:44:49.722Z,20.73
2022-11-29T11:47:28.409Z,28.30
2022-11-29T11:50:02.016Z,24.27
2022-11-29T11:52:50.612Z,24.70
2022-11-29T11:55:37.087Z,24.83
2022-11-29T11:58:12.794Z,26.40
2022-11-29T12:03:59.177Z,21.73
2022-11-29T12:06:28.249Z,25.43
2022-11-29T12:09:02.640Z,28.87
2022-11-29T12:11:44.372Z,31.90
2022-11-29T12:14:28.601Z,22.73
2022-11-29T12:17:15.429Z,29.00
2022-11-29T12:20:07.516Z,21.70
2022-11-29T12:22:45.265Z,19.43
2022-11-29T12:25:20.698Z,26.93
2022-11-29T12:27:49.972Z,19.93
2022-11-29T12:30:20.224Z,22.50
2022-11-29T12:33:23.869Z,21.53
2022-11-29T12:36:00.100Z,22.40
2022-11-29T12:38:43.305Z,25.43
2022-11-29T12:41:34.824Z,24.13
2022-11-29T12:44:03.872Z,18.07
2022-11-29T12:46:31.247Z,18.50
2022-11-29T12:49:13.475Z,22.63
2022-11-29T12:51:46.510Z,24.20
2022-11-29T12:54:49.037Z,21.00
2022-11-29T12:57:29.809Z,19.70
2022-11-29T13:00:16.496Z,23.27
2022-11-29T13:03:13.653Z,20.30
2022-11-29T13:06:08.045Z,18.10
2022-11-29T13:09:01.033Z,19.03
2022-11-29T13:11:31.018Z,16.03
2022-11-29T13:14:42.281Z,15.70
2022-11-29T13:17:12.292Z,14.50
2022-11-29T13:19:53.337Z,16.27
2022-11-29T13:22:42.251Z,17.53
2022-11-29T13:25:33.673Z,18.00
2022-11-29T13:28:14.479Z,18.43
2022-11-29T13:30:41.188Z,20.30
2022-11-29T13:33:32.236Z,17.37
2022-11-29T13:36:11.355Z,17.83
2022-11-29T13:39:19.246Z,19.30
2022-11-29T13:42:26.967Z,17.20
2022-11-29T13:45:24.388Z,14.33
2022-11-29T13:48:02.238Z,17.00
2022-11-29T13:50:45.375Z,13.37
2022-11-29T13:53:18.838Z,13.67
2022-11-29T13:55:48.628Z,21.00
2022-11-29T13:58:17.486Z,18.70
2022-11-29T14:00:44.745Z,16.00
2022-11-29T14:03:23.644Z,14.17
2022-11-29T14:05:53.816Z,11.57
2022-11-29T14:08:37.694Z,14.70
2022-11-29T14:11:14.459Z,13.97
2022-11-29T14:14:00.468Z,13.20
2022-11-29T14:16:47.739Z,11.20
2022-11-29T14:19:34.035Z,12.10
2022-11-29T14:22:06.079Z,11.80
2022-11-29T14:24:32.622Z,12.87
2022-11-29T14:27:14.166Z,12.20
2022-11-29T14:29:53.817Z,11.53
2022-11-29T14:32:41.504Z,13.43
2022-11-29T14:35:11.144Z,11.10
2022-11-29T14:37:56.619Z,11.97
2022-11-29T14:40:52.448Z,13.43
2022-11-29T14:43:32.789Z,12.77
2022-11-29T14:46:14.599Z,12.83
2022-11-29T14:49:01.247Z,13.20
2022-11-29T14:51:30.749Z,11.63
2022-11-29T14:54:08.122Z,9.00
2022-11-29T14:56:38.869Z,10.70
2022-11-29T14:59:43.271Z,8.60
2022-11-29T15:02:39.381Z,11.97
2022-11-29T15:05:44.461Z,11.30
2022-11-29T15:08:26.219Z,10.00
2022-11-29T15:11:08.250Z,9.10
2022-11-29T15:13:38.285Z,12.90
2022-11-29T15:17:06.053Z,6.60
2022-11-29T15:19:57.836Z,13.40
2022-11-29T15:22:47.746Z,12.27
2022-11-29T15:25:20.767Z,11.70
2022-11-29T15:27:55.310Z,17.23
2022-11-29T15:30:35.826Z,6.90
2022-11-29T15:33:06.032Z,8.90
2022-11-29T15:35:36.967Z,11.23
2022-11-29T15:38:03.752Z,13.57
2022-11-29T15:40:35.263Z,9.63
2022-11-29T15:43:26.210Z,9.00
2022-11-29T15:45:55.381Z,6.70
2022-11-29T15:48:24.759Z,8.33
2022-11-29T15:51:05.028Z,8.07
2022-11-29T15:53:43.239Z,8.23
2022-11-29T15:56:17.782Z,12.27
2022-11-29T15:58:46.046Z,12.37
2022-11-29T16:01:20.458Z,7.90
2022-11-29T16:03:51.182Z,10.37
2022-11-29T16:06:35.906Z,7.40
2022-11-29T16:09:03.109Z,7.30
2022-11-29T16:11:31.572Z,6.47
2022-11-29T16:14:12.652Z,5.93
2022-11-29T16:16:40.769Z,14.77
2022-11-29T16:19:18.216Z,6.70
2022-11-29T16:21:44.989Z,7.97
2022-11-29T16:24:19.167Z,8.00
2022-11-29T16:26:47.947Z,8.20
2022-11-29T16:29:21.803Z,16.60
2022-11-29T16:31:48.457Z,6.80
2022-11-29T16:34:27.288Z,6.70
2022-11-29T16:37:01.120Z,9.97
2022-11-29T16:39:28.807Z,9.13
2022-11-29T16:42:06.299Z,9.13
2022-11-29T16:44:42.495Z,7.80
2022-11-29T16:47:16.009Z,6.93
2022-11-29T16:49:42.932Z,8.93
2022-11-29T16:52:30.695Z,8.20
2022-11-29T16:54:57.552Z,8.20
2022-11-29T16:57:24.896Z,7.73
2022-11-29T16:59:51.565Z,9.43
2022-11-29T17:02:18.485Z,8.73
2022-11-29T17:04:45.663Z,7.43
2022-11-29T17:07:22.068Z,11.17
2022-11-29T17:09:48.799Z,6.80
2022-11-29T17:12:15.445Z,9.23
2022-11-29T17:14:42.463Z,8.07
2022-11-29T17:17:16.743Z,5.50
2022-11-29T17:19:43.464Z,5.97
2022-11-29T17:22:10.951Z,7.07
2022-11-29T17:24:39.532Z,7.93
2022-11-29T17:27:08.841Z,7.20
2022-11-29T17:29:35.437Z,9.70
2022-11-29T17:32:02.026Z,6.97
2022-11-29T17:34:28.652Z,5.87
2022-11-29T17:36:55.220Z,10.17
2022-11-29T17:39:22.569Z,4.67
2022-11-29T17:41:49.328Z,9.53
2022-11-29T17:44:15.900Z,6.50
2022-11-29T17:46:42.465Z,5.60
2022-11-29T17:49:10.414Z,5.83
2022-11-29T17:51:54.263Z,7.43
2022-11-29T17:54:22.296Z,5.20
2022-11-29T17:56:49.346Z,5.50
2022-11-29T17:59:15.940Z,5.60
2022-11-29T18:01:42.577Z,6.57
2022-11-29T18:04:09.281Z,4.10
2022-11-29T18:06:39.129Z,7.07
2022-11-29T18:09:09.418Z,7.60
2022-11-29T18:11:47.436Z,4.90
2022-11-29T18:14:18.085Z,4.13
2022-11-29T18:16:45.351Z,6.50
2022-11-29T18:19:14.955Z,4.60
2022-11-29T18:21:41.751Z,4.30
2022-11-29T18:24:08.833Z,6.73
2022-11-29T18:26:36.624Z,5.23
2022-11-29T18:29:04.280Z,6.27
2022-11-29T18:31:33.131Z,7.67
2022-11-29T18:34:02.029Z,6.30
2022-11-29T18:36:34.185Z,6.50
2022-11-29T18:39:06.061Z,4.33
2022-11-29T18:41:33.223Z,5.10
2022-11-29T18:44:00.918Z,6.43
2022-11-29T18:46:36.456Z,7.27
2022-11-29T18:49:05.360Z,6.30
2022-11-29T18:51:32.463Z,5.50
2022-11-29T18:53:59.297Z,6.10
2022-11-29T18:56:28.979Z,6.10
2022-11-29T18:58:58.880Z,8.63
2022-11-29T19:01:28.328Z,4.83
2022-11-29T19:03:57.025Z,17.20
2022-11-29T19:06:26.390Z,3.23
2022-11-29T19:08:53.313Z,6.77
2022-11-29T19:11:22.043Z,6.57
2022-11-29T19:14:03.743Z,3.67
2022-11-29T19:16:32.027Z,7.20
2022-11-29T19:19:00.059Z,8.17
2022-11-29T19:21:28.595Z,5.07
2022-11-29T19:24:04.061Z,5.70
2022-11-29T19:26:31.535Z,4.10
2022-11-29T19:28:59.840Z,6.07
2022-11-29T19:31:27.245Z,6.83
2022-11-29T19:33:55.945Z,7.33
2022-11-29T19:36:25.687Z,5.30
2022-11-29T19:38:54.050Z,6.17
2022-11-29T19:41:22.576Z,6.77
2022-11-29T19:43:49.563Z,6.37
2022-11-29T19:46:25.363Z,4.40
2022-11-29T19:48:53.144Z,5.27
2022-11-29T19:51:21.074Z,4.70
2022-11-29T19:53:48.128Z,5.93
2022-11-29T19:56:16.574Z,6.90
2022-11-29T19:58:44.102Z,3.83
2022-11-29T20:01:19.627Z,3.43
2022-11-29T20:03:46.287Z,6.37
2022-11-29T20:06:13.614Z,4.70
2022-11-29T20:08:40.769Z,5.60
2022-11-29T20:11:16.523Z,8.13
2022-11-29T20:13:45.061Z,3.80
2022-11-29T20:16:14.572Z,4.90
2022-11-29T20:18:48.964Z,3.97
2022-11-29T20:21:25.543Z,5.40
2022-11-29T20:23:57.285Z,3.80
2022-11-29T20:26:24.692Z,5.60
2022-11-29T20:28:51.563Z,3.57
2022-11-29T20:31:22.392Z,4.90
2022-11-29T20:33:51.025Z,2.53
2022-11-29T20:36:39.902Z,4.73
2022-11-29T20:39:43.652Z,4.17
2022-11-29T20:42:28.013Z,5.30
2022-11-29T20:44:58.981Z,5.53
2022-11-29T20:47:28.444Z,3.60
2022-11-29T20:49:55.205Z,3.90
2022-11-29T20:52:51.981Z,6.23
2022-11-29T20:55:18.759Z,4.97
2022-11-29T20:57:45.424Z,5.10
2022-11-29T21:00:13.294Z,4.83
2022-11-29T21:02:39.886Z,5.60
2022-11-29T21:05:07.507Z,6.97
2022-11-29T21:07:34.619Z,5.20
2022-11-29T21:10:01.908Z,5.27
2022-11-29T21:12:29.940Z,4.93
2022-11-29T21:14:57.216Z,3.00
2022-11-29T21:17:28.759Z,4.50
2022-11-29T21:19:58.675Z,3.53
2022-11-29T21:22:46.754Z,3.70
2022-11-29T21:25:31.532Z,5.47
2022-11-29T21:27:59.430Z,28.90
2022-11-29T21:30:26.313Z,34.50
2022-11-29T21:32:53.336Z,23.73
2022-11-29T21:35:20.075Z,21.37
2022-11-29T21:37:46.912Z,16.93
2022-11-29T21:40:14.561Z,17.10
2022-11-29T21:42:41.173Z,14.23
2022-11-29T21:45:14.621Z,12.53
2022-11-29T21:47:42.704Z,14.07
2022-11-29T21:50:09.779Z,13.27
2022-11-29T21:52:36.382Z,12.67
2022-11-29T21:55:03.234Z,11.93
2022-11-29T21:57:29.792Z,11.53
2022-11-29T21:59:56.331Z,10.80
2022-11-29T22:02:23.163Z,11.23
2022-11-29T22:04:49.818Z,13.17
2022-11-29T22:07:16.550Z,10.13
2022-11-29T22:09:43.186Z,11.27
2022-11-29T22:12:32.341Z,14.37
2022-11-29T22:14:56.351Z,12.87
2022-11-29T22:17:22.906Z,7.27
2022-11-29T22:19:49.541Z,8.80
2022-11-29T22:22:16.385Z,8.00
2022-11-29T22:24:43.019Z,8.40
2022-11-29T22:27:09.622Z,6.33
2022-11-29T22:29:36.271Z,6.43
2022-11-29T22:32:03.037Z,6.73
2022-11-29T22:34:29.697Z,10.37
2022-11-29T22:36:56.549Z,5.80
2022-11-29T22:39:23.958Z,7.70
2022-11-29T22:41:54.159Z,5.27
2022-11-29T22:44:21.651Z,10.20
2022-11-29T22:46:48.415Z,7.80
2022-11-29T22:49:15.485Z,7.60
2022-11-29T22:51:42.257Z,7.50
2022-11-29T22:54:11.369Z,9.43
2022-11-29T22:56:40.148Z,4.40
2022-11-29T22:59:06.793Z,7.10
2022-11-29T23:01:35.264Z,6.07
2022-11-29T23:04:04.437Z,33.00
2022-11-29T23:06:34.781Z,25.37
2022-11-29T23:09:07.316Z,10.33
2022-11-29T23:11:33.934Z,7.60
2022-11-29T23:14:00.504Z,10.63
2022-11-29T23:16:29.529Z,10.10
2022-11-29T23:19:00.600Z,12.10
2022-11-29T23:21:30.228Z,12.20
2022-11-29T23:23:58.936Z,10.10
2022-11-29T23:26:31.276Z,8.80
2022-11-29T23:28:58.525Z,6.67
2022-11-29T23:31:25.449Z,9.07
2022-11-29T23:33:52.150Z,9.90
2022-11-29T23:36:18.913Z,7.80
2022-11-29T23:38:46.003Z,7.40
2022-11-29T23:41:12.824Z,8.10
2022-11-29T23:43:40.571Z,8.20
2022-11-29T23:46:16.550Z,7.83
2022-11-29T23:48:43.966Z,7.30
2022-11-29T23:51:11.594Z,9.20
2022-11-29T23:53:38.352Z,7.80
2022-11-29T23:56:11.839Z,7.50
2022-11-29T23:58:38.701Z,13.13
